sensor_id;sensor_type;location;lat;lon;timestamp;P1;durP1;ratioP1;P2;durP2;ratioP2
5612;SDS011;63463;53.586;9.928;2023-07-31T00:00:03;7.60;;;4.30;;
5612;SDS011;63463;53.586;9.928;2023-07-31T00:02:29;11.83;;;4.40;;
5612;SDS011;63463;53.586;9.928;2023-07-31T00:04:55;13.63;;;4.40;;
5612;SDS011;63463;53.586;9.928;2023-07-31T00:07:22;19.83;;;4.07;;
5612;SDS011;63463;53.586;9.928;2023-07-31T00:09:48;4.90;;;3.50;;
5612;SDS011;63463;53.586;9.928;2023-07-31T00:12:13;6.80;;;3.73;;
5612;SDS011;63463;53.586;9.928;2023-07-31T00:14:39;11.70;;;4.00;;
5612;SDS011;63463;53.586;9.928;2023-07-31T00:17:05;10.57;;;3.50;;
5612;SDS011;63463;53.586;9.928;2023-07-31T00:19:31;10.43;;;4.03;;
5612;SDS011;63463;53.586;9.928;2023-07-31T00:22:00;7.13;;;3.73;;
5612;SDS011;63463;53.586;9.928;2023-07-31T00:24:26;12.07;;;4.10;;
5612;SDS011;63463;53.586;9.928;2023-07-31T00:26:52;9.87;;;4.00;;
5612;SDS011;63463;53.586;9.928;2023-07-31T00:29:18;8.43;;;4.17;;
5612;SDS011;63463;53.586;9.928;2023-07-31T00:31:44;8.03;;;3.60;;
5612;SDS011;63463;53.586;9.928;2023-07-31T00:34:10;4.63;;;4.13;;
5612;SDS011;63463;53.586;9.928;2023-07-31T00:36:36;16.93;;;4.30;;
5612;SDS011;63463;53.586;9.928;2023-07-31T00:39:02;12.97;;;3.77;;
5612;SDS011;63463;53.586;9.928;2023-07-31T00:41:31;12.97;;;3.93;;
5612;SDS011;63463;53.586;9.928;2023-07-31T00:43:57;9.80;;;3.73;;
5612;SDS011;63463;53.586;9.928;2023-07-31T00:46:23;12.80;;;4.00;;
5612;SDS011;63463;53.586;9.928;2023-07-31T00:48:49;7.27;;;4.20;;
5612;SDS011;63463;53.586;9.928;2023-07-31T00:51:15;13.13;;;3.90;;
5612;SDS011;63463;53.586;9.928;2023-07-31T00:53:41;5.90;;;3.43;;
5612;SDS011;63463;53.586;9.928;2023-07-31T00:56:08;5.03;;;3.37;;
5612;SDS011;63463;53.586;9.928;2023-07-31T00:58:36;6.70;;;3.90;;
5612;SDS011;63463;53.586;9.928;2023-07-31T01:01:02;7.73;;;3.63;;
5612;SDS011;63463;53.586;9.928;2023-07-31T01:03:28;11.73;;;3.90;;
5612;SDS011;63463;53.586;9.928;2023-07-31T01:08:32;9.70;;;4.10;;
5612;SDS011;63463;53.586;9.928;2023-07-31T01:11:00;8.07;;;4.00;;
5612;SDS011;63463;53.586;9.928;2023-07-31T01:13:28;5.77;;;4.07;;
5612;SDS011;63463;53.586;9.928;2023-07-31T01:15:54;11.43;;;4.03;;
5612;SDS011;63463;53.586;9.928;2023-07-31T01:18:20;12.77;;;4.67;;
5612;SDS011;63463;53.586;9.928;2023-07-31T01:20:47;17.43;;;4.37;;
5612;SDS011;63463;53.586;9.928;2023-07-31T01:28:14;16.67;;;4.50;;
5612;SDS011;63463;53.586;9.928;2023-07-31T01:30:43;7.67;;;4.20;;
5612;SDS011;63463;53.586;9.928;2023-07-31T01:33:10;6.93;;;3.80;;
5612;SDS011;63463;53.586;9.928;2023-07-31T01:35:36;7.57;;;4.33;;
5612;SDS011;63463;53.586;9.928;2023-07-31T01:38:03;7.73;;;4.77;;
5612;SDS011;63463;53.586;9.928;2023-07-31T01:40:30;6.40;;;4.67;;
5612;SDS011;63463;53.586;9.928;2023-07-31T01:42:56;4.73;;;4.23;;
5612;SDS011;63463;53.586;9.928;2023-07-31T01:45:22;15.30;;;4.87;;
5612;SDS011;63463;53.586;9.928;2023-07-31T01:47:48;9.50;;;4.53;;
5612;SDS011;63463;53.586;9.928;2023-07-31T01:50:14;11.53;;;4.73;;
5612;SDS011;63463;53.586;9.928;2023-07-31T01:52:40;12.40;;;4.70;;
5612;SDS011;63463;53.586;9.928;2023-07-31T01:55:06;8.33;;;5.07;;
5612;SDS011;63463;53.586;9.928;2023-07-31T01:57:32;7.10;;;4.03;;
5612;SDS011;63463;53.586;9.928;2023-07-31T01:59:58;8.23;;;4.50;;
5612;SDS011;63463;53.586;9.928;2023-07-31T02:02:24;7.90;;;4.43;;
5612;SDS011;63463;53.586;9.928;2023-07-31T02:04:50;13.17;;;5.77;;
5612;SDS011;63463;53.586;9.928;2023-07-31T02:07:16;18.03;;;5.17;;
5612;SDS011;63463;53.586;9.928;2023-07-31T02:09:42;15.43;;;5.20;;
5612;SDS011;63463;53.586;9.928;2023-07-31T02:12:08;12.30;;;4.57;;
5612;SDS011;63463;53.586;9.928;2023-07-31T02:14:34;8.43;;;4.30;;
5612;SDS011;63463;53.586;9.928;2023-07-31T02:17:00;12.57;;;5.00;;
5612;SDS011;63463;53.586;9.928;2023-07-31T02:19:26;8.37;;;4.87;;
5612;SDS011;63463;53.586;9.928;2023-07-31T02:21:52;7.80;;;4.50;;
5612;SDS011;63463;53.586;9.928;2023-07-31T02:24:18;10.23;;;4.60;;
5612;SDS011;63463;53.586;9.928;2023-07-31T02:26:44;12.00;;;5.30;;
5612;SDS011;63463;53.586;9.928;2023-07-31T02:29:10;9.07;;;5.13;;
5612;SDS011;63463;53.586;9.928;2023-07-31T02:31:35;9.83;;;5.00;;
5612;SDS011;63463;53.586;9.928;2023-07-31T02:34:01;5.37;;;4.33;;
5612;SDS011;63463;53.586;9.928;2023-07-31T02:36:27;5.07;;;3.77;;
5612;SDS011;63463;53.586;9.928;2023-07-31T02:38:53;6.00;;;4.60;;
5612;SDS011;63463;53.586;9.928;2023-07-31T02:41:20;11.93;;;5.07;;
5612;SDS011;63463;53.586;9.928;2023-07-31T02:43:46;13.50;;;4.87;;
5612;SDS011;63463;53.586;9.928;2023-07-31T02:46:12;6.03;;;4.50;;
5612;SDS011;63463;53.586;9.928;2023-07-31T02:48:38;10.40;;;4.97;;
5612;SDS011;63463;53.586;9.928;2023-07-31T02:51:03;9.40;;;4.80;;
5612;SDS011;63463;53.586;9.928;2023-07-31T02:53:29;10.33;;;4.70;;
5612;SDS011;63463;53.586;9.928;2023-07-31T02:55:55;7.70;;;4.67;;
5612;SDS011;63463;53.586;9.928;2023-07-31T02:58:21;6.80;;;4.43;;
5612;SDS011;63463;53.586;9.928;2023-07-31T03:00:47;17.73;;;5.27;;
5612;SDS011;63463;53.586;9.928;2023-07-31T03:03:14;7.93;;;5.13;;
5612;SDS011;63463;53.586;9.928;2023-07-31T03:05:40;8.10;;;5.40;;
5612;SDS011;63463;53.586;9.928;2023-07-31T03:08:06;8.93;;;5.00;;
5612;SDS011;63463;53.586;9.928;2023-07-31T03:10:31;7.43;;;4.80;;
5612;SDS011;63463;53.586;9.928;2023-07-31T03:12:57;10.17;;;5.10;;
5612;SDS011;63463;53.586;9.928;2023-07-31T03:15:23;8.90;;;4.40;;
5612;SDS011;63463;53.586;9.928;2023-07-31T03:17:49;12.87;;;5.33;;
5612;SDS011;63463;53.586;9.928;2023-07-31T03:20:15;11.60;;;5.33;;
5612;SDS011;63463;53.586;9.928;2023-07-31T03:22:41;13.80;;;6.17;;
5612;SDS011;63463;53.586;9.928;2023-07-31T03:25:07;11.53;;;5.37;;
5612;SDS011;63463;53.586;9.928;2023-07-31T03:27:35;11.87;;;5.30;;
5612;SDS011;63463;53.586;9.928;2023-07-31T03:30:02;8.00;;;5.23;;
5612;SDS011;63463;53.586;9.928;2023-07-31T03:32:28;4.50;;;4.17;;
5612;SDS011;63463;53.586;9.928;2023-07-31T03:34:53;6.73;;;5.23;;
5612;SDS011;63463;53.586;9.928;2023-07-31T03:37:19;11.93;;;5.30;;
5612;SDS011;63463;53.586;9.928;2023-07-31T03:39:45;8.07;;;4.80;;
5612;SDS011;63463;53.586;9.928;2023-07-31T03:42:11;10.70;;;4.80;;
5612;SDS011;63463;53.586;9.928;2023-07-31T03:44:37;5.00;;;4.53;;
5612;SDS011;63463;53.586;9.928;2023-07-31T03:47:03;11.43;;;5.40;;
5612;SDS011;63463;53.586;9.928;2023-07-31T03:49:29;6.97;;;5.17;;
5612;SDS011;63463;53.586;9.928;2023-07-31T03:51:55;7.53;;;5.10;;
5612;SDS011;63463;53.586;9.928;2023-07-31T03:54:21;7.50;;;5.40;;
5612;SDS011;63463;53.586;9.928;2023-07-31T03:56:47;5.03;;;4.53;;
5612;SDS011;63463;53.586;9.928;2023-07-31T03:59:13;5.87;;;4.33;;
5612;SDS011;63463;53.586;9.928;2023-07-31T04:01:39;7.00;;;5.10;;
5612;SDS011;63463;53.586;9.928;2023-07-31T04:04:05;9.97;;;4.90;;
5612;SDS011;63463;53.586;9.928;2023-07-31T04:06:31;8.83;;;4.77;;
5612;SDS011;63463;53.586;9.928;2023-07-31T04:08:57;6.13;;;4.60;;
5612;SDS011;63463;53.586;9.928;2023-07-31T04:11:23;7.43;;;4.97;;
5612;SDS011;63463;53.586;9.928;2023-07-31T04:13:49;5.20;;;4.60;;
5612;SDS011;63463;53.586;9.928;2023-07-31T04:16:15;7.07;;;5.50;;
5612;SDS011;63463;53.586;9.928;2023-07-31T04:18:40;9.50;;;4.77;;
5612;SDS011;63463;53.586;9.928;2023-07-31T04:21:06;9.40;;;4.63;;
5612;SDS011;63463;53.586;9.928;2023-07-31T04:23:32;5.47;;;4.70;;
5612;SDS011;63463;53.586;9.928;2023-07-31T04:25:58;7.60;;;4.83;;
5612;SDS011;63463;53.586;9.928;2023-07-31T04:28:24;7.70;;;4.30;;
5612;SDS011;63463;53.586;9.928;2023-07-31T04:30:51;13.10;;;4.83;;
5612;SDS011;63463;53.586;9.928;2023-07-31T04:33:17;5.67;;;5.10;;
5612;SDS011;63463;53.586;9.928;2023-07-31T04:35:48;12.20;;;4.50;;
5612;SDS011;63463;53.586;9.928;2023-07-31T04:38:16;5.73;;;4.87;;
5612;SDS011;63463;53.586;9.928;2023-07-31T04:40:42;7.60;;;4.47;;
5612;SDS011;63463;53.586;9.928;2023-07-31T04:43:08;5.30;;;4.60;;
5612;SDS011;63463;53.586;9.928;2023-07-31T04:45:34;4.70;;;4.40;;
5612;SDS011;63463;53.586;9.928;2023-07-31T04:48:00;7.30;;;4.80;;
5612;SDS011;63463;53.586;9.928;2023-07-31T04:50:26;6.70;;;4.20;;
5612;SDS011;63463;53.586;9.928;2023-07-31T04:52:52;8.70;;;3.93;;
5612;SDS011;63463;53.586;9.928;2023-07-31T04:55:18;5.07;;;4.00;;
5612;SDS011;63463;53.586;9.928;2023-07-31T04:57:44;5.17;;;4.77;;
5612;SDS011;63463;53.586;9.928;2023-07-31T05:00:10;13.20;;;4.27;;
5612;SDS011;63463;53.586;9.928;2023-07-31T05:02:36;6.87;;;4.33;;
5612;SDS011;63463;53.586;9.928;2023-07-31T05:05:02;4.20;;;3.90;;
5612;SDS011;63463;53.586;9.928;2023-07-31T05:07:28;4.37;;;4.00;;
5612;SDS011;63463;53.586;9.928;2023-07-31T05:09:54;5.80;;;4.70;;
5612;SDS011;63463;53.586;9.928;2023-07-31T05:12:20;4.47;;;4.17;;
5612;SDS011;63463;53.586;9.928;2023-07-31T05:14:45;4.37;;;3.93;;
5612;SDS011;63463;53.586;9.928;2023-07-31T05:17:11;4.90;;;4.50;;
5612;SDS011;63463;53.586;9.928;2023-07-31T05:19:37;4.60;;;4.20;;
5612;SDS011;63463;53.586;9.928;2023-07-31T05:22:03;4.23;;;3.47;;
5612;SDS011;63463;53.586;9.928;2023-07-31T05:24:29;5.40;;;4.40;;
5612;SDS011;63463;53.586;9.928;2023-07-31T05:26:55;4.40;;;3.80;;
5612;SDS011;63463;53.586;9.928;2023-07-31T05:29:21;4.23;;;3.93;;
5612;SDS011;63463;53.586;9.928;2023-07-31T05:31:47;4.43;;;4.03;;
5612;SDS011;63463;53.586;9.928;2023-07-31T05:34:13;4.47;;;4.17;;
5612;SDS011;63463;53.586;9.928;2023-07-31T05:36:39;5.50;;;4.40;;
5612;SDS011;63463;53.586;9.928;2023-07-31T05:39:05;6.97;;;4.80;;
5612;SDS011;63463;53.586;9.928;2023-07-31T05:41:33;4.97;;;4.60;;
5612;SDS011;63463;53.586;9.928;2023-07-31T05:43:59;4.70;;;4.30;;
5612;SDS011;63463;53.586;9.928;2023-07-31T05:46:25;4.80;;;4.40;;
5612;SDS011;63463;53.586;9.928;2023-07-31T05:48:51;6.50;;;4.60;;
5612;SDS011;63463;53.586;9.928;2023-07-31T05:51:17;4.57;;;4.20;;
5612;SDS011;63463;53.586;9.928;2023-07-31T05:53:43;4.93;;;4.50;;
5612;SDS011;63463;53.586;9.928;2023-07-31T05:56:09;21.83;;;5.37;;
5612;SDS011;63463;53.586;9.928;2023-07-31T05:58:35;5.43;;;5.03;;
5612;SDS011;63463;53.586;9.928;2023-07-31T06:01:01;4.83;;;4.40;;
5612;SDS011;63463;53.586;9.928;2023-07-31T06:03:27;5.40;;;4.90;;
5612;SDS011;63463;53.586;9.928;2023-07-31T06:05:52;4.90;;;4.60;;
5612;SDS011;63463;53.586;9.928;2023-07-31T06:08:18;7.50;;;4.50;;
5612;SDS011;63463;53.586;9.928;2023-07-31T06:10:44;5.67;;;5.20;;
5612;SDS011;63463;53.586;9.928;2023-07-31T06:13:10;5.90;;;5.30;;
5612;SDS011;63463;53.586;9.928;2023-07-31T06:15:36;5.13;;;4.63;;
5612;SDS011;63463;53.586;9.928;2023-07-31T06:18:02;6.10;;;4.63;;
5612;SDS011;63463;53.586;9.928;2023-07-31T06:20:29;4.50;;;4.27;;
5612;SDS011;63463;53.586;9.928;2023-07-31T06:22:55;5.40;;;4.50;;
5612;SDS011;63463;53.586;9.928;2023-07-31T06:25:21;5.10;;;4.70;;
5612;SDS011;63463;53.586;9.928;2023-07-31T06:27:47;5.93;;;5.37;;
5612;SDS011;63463;53.586;9.928;2023-07-31T06:30:13;4.93;;;4.53;;
5612;SDS011;63463;53.586;9.928;2023-07-31T06:32:39;7.13;;;4.77;;
5612;SDS011;63463;53.586;9.928;2023-07-31T06:35:05;5.27;;;4.83;;
5612;SDS011;63463;53.586;9.928;2023-07-31T06:37:32;5.70;;;5.20;;
5612;SDS011;63463;53.586;9.928;2023-07-31T06:39:58;8.13;;;4.70;;
5612;SDS011;63463;53.586;9.928;2023-07-31T06:42:24;5.60;;;5.13;;
5612;SDS011;63463;53.586;9.928;2023-07-31T06:44:50;5.13;;;4.73;;
5612;SDS011;63463;53.586;9.928;2023-07-31T06:47:16;5.13;;;4.73;;
5612;SDS011;63463;53.586;9.928;2023-07-31T06:49:42;5.10;;;4.80;;
5612;SDS011;63463;53.586;9.928;2023-07-31T06:52:08;5.40;;;4.90;;
5612;SDS011;63463;53.586;9.928;2023-07-31T06:54:36;5.60;;;4.93;;
5612;SDS011;63463;53.586;9.928;2023-07-31T06:57:02;6.43;;;5.10;;
5612;SDS011;63463;53.586;9.928;2023-07-31T06:59:28;7.80;;;4.97;;
5612;SDS011;63463;53.586;9.928;2023-07-31T07:01:54;4.57;;;4.30;;
5612;SDS011;63463;53.586;9.928;2023-07-31T07:04:20;7.40;;;4.90;;
5612;SDS011;63463;53.586;9.928;2023-07-31T07:06:46;6.93;;;4.70;;
5612;SDS011;63463;53.586;9.928;2023-07-31T07:09:12;6.80;;;4.73;;
5612;SDS011;63463;53.586;9.928;2023-07-31T07:11:38;7.03;;;4.83;;
5612;SDS011;63463;53.586;9.928;2023-07-31T07:14:04;5.17;;;3.90;;
5612;SDS011;63463;53.586;9.928;2023-07-31T07:16:30;5.20;;;4.80;;
5612;SDS011;63463;53.586;9.928;2023-07-31T07:18:56;5.20;;;4.80;;
5612;SDS011;63463;53.586;9.928;2023-07-31T07:21:22;6.17;;;4.60;;
5612;SDS011;63463;53.586;9.928;2023-07-31T07:23:48;5.00;;;4.60;;
5612;SDS011;63463;53.586;9.928;2023-07-31T07:26:14;4.67;;;4.37;;
5612;SDS011;63463;53.586;9.928;2023-07-31T07:28:40;10.77;;;4.70;;
5612;SDS011;63463;53.586;9.928;2023-07-31T07:31:06;4.47;;;4.13;;
5612;SDS011;63463;53.586;9.928;2023-07-31T07:33:32;5.03;;;4.10;;
5612;SDS011;63463;53.586;9.928;2023-07-31T07:36:01;4.90;;;4.50;;
5612;SDS011;63463;53.586;9.928;2023-07-31T07:38:27;4.67;;;4.37;;
5612;SDS011;63463;53.586;9.928;2023-07-31T07:40:53;5.77;;;4.73;;
5612;SDS011;63463;53.586;9.928;2023-07-31T07:43:19;4.80;;;4.40;;
5612;SDS011;63463;53.586;9.928;2023-07-31T07:45:45;5.07;;;4.67;;
5612;SDS011;63463;53.586;9.928;2023-07-31T07:48:11;4.90;;;4.50;;
5612;SDS011;63463;53.586;9.928;2023-07-31T07:50:38;5.80;;;4.70;;
5612;SDS011;63463;53.586;9.928;2023-07-31T07:53:04;5.03;;;4.50;;
5612;SDS011;63463;53.586;9.928;2023-07-31T07:55:30;5.87;;;5.10;;
5612;SDS011;63463;53.586;9.928;2023-07-31T07:57:56;5.27;;;4.87;;
5612;SDS011;63463;53.586;9.928;2023-07-31T08:00:22;5.57;;;5.07;;
5612;SDS011;63463;53.586;9.928;2023-07-31T08:02:48;6.47;;;4.67;;
5612;SDS011;63463;53.586;9.928;2023-07-31T08:05:14;5.53;;;5.03;;
5612;SDS011;63463;53.586;9.928;2023-07-31T08:07:42;5.50;;;5.00;;
5612;SDS011;63463;53.586;9.928;2023-07-31T08:10:08;5.27;;;4.77;;
5612;SDS011;63463;53.586;9.928;2023-07-31T08:12:34;5.97;;;5.47;;
5612;SDS011;63463;53.586;9.928;2023-07-31T08:15:00;6.40;;;4.73;;
5612;SDS011;63463;53.586;9.928;2023-07-31T08:17:26;6.00;;;5.40;;
5612;SDS011;63463;53.586;9.928;2023-07-31T08:19:52;8.27;;;4.37;;
5612;SDS011;63463;53.586;9.928;2023-07-31T08:22:18;5.37;;;4.87;;
5612;SDS011;63463;53.586;9.928;2023-07-31T08:24:43;4.03;;;3.83;;
5612;SDS011;63463;53.586;9.928;2023-07-31T08:27:09;4.73;;;4.20;;
5612;SDS011;63463;53.586;9.928;2023-07-31T08:29:36;4.30;;;4.00;;
5612;SDS011;63463;53.586;9.928;2023-07-31T08:32:02;4.27;;;3.97;;
5612;SDS011;63463;53.586;9.928;2023-07-31T08:34:28;4.40;;;4.00;;
5612;SDS011;63463;53.586;9.928;2023-07-31T08:36:54;4.93;;;4.17;;
5612;SDS011;63463;53.586;9.928;2023-07-31T08:39:20;3.80;;;3.50;;
5612;SDS011;63463;53.586;9.928;2023-07-31T08:41:47;4.87;;;3.60;;
5612;SDS011;63463;53.586;9.928;2023-07-31T08:44:12;4.87;;;3.47;;
5612;SDS011;63463;53.586;9.928;2023-07-31T08:46:39;3.27;;;3.17;;
5612;SDS011;63463;53.586;9.928;2023-07-31T08:49:06;4.00;;;3.70;;
5612;SDS011;63463;53.586;9.928;2023-07-31T08:51:36;5.30;;;2.97;;
5612;SDS011;63463;53.586;9.928;2023-07-31T08:54:02;3.60;;;3.40;;
5612;SDS011;63463;53.586;9.928;2023-07-31T08:56:31;2.97;;;2.80;;
5612;SDS011;63463;53.586;9.928;2023-07-31T08:58:58;3.90;;;2.77;;
5612;SDS011;63463;53.586;9.928;2023-07-31T09:01:26;3.00;;;2.80;;
5612;SDS011;63463;53.586;9.928;2023-07-31T09:03:56;3.43;;;2.73;;
5612;SDS011;63463;53.586;9.928;2023-07-31T09:06:22;3.23;;;2.60;;
5612;SDS011;63463;53.586;9.928;2023-07-31T09:08:49;2.17;;;2.07;;
5612;SDS011;63463;53.586;9.928;2023-07-31T09:11:15;2.53;;;2.43;;
5612;SDS011;63463;53.586;9.928;2023-07-31T09:13:41;2.47;;;2.37;;
5612;SDS011;63463;53.586;9.928;2023-07-31T09:16:08;2.50;;;2.40;;
5612;SDS011;63463;53.586;9.928;2023-07-31T09:18:56;2.63;;;2.37;;
5612;SDS011;63463;53.586;9.928;2023-07-31T09:21:21;3.40;;;2.20;;
5612;SDS011;63463;53.586;9.928;2023-07-31T09:23:47;2.50;;;2.40;;
5612;SDS011;63463;53.586;9.928;2023-07-31T09:26:28;2.40;;;2.30;;
5612;SDS011;63463;53.586;9.928;2023-07-31T09:28:54;2.03;;;1.93;;
5612;SDS011;63463;53.586;9.928;2023-07-31T09:31:39;2.23;;;2.13;;
5612;SDS011;63463;53.586;9.928;2023-07-31T09:34:06;2.40;;;2.30;;
5612;SDS011;63463;53.586;9.928;2023-07-31T09:36:32;7.97;;;2.20;;
5612;SDS011;63463;53.586;9.928;2023-07-31T09:39:02;4.10;;;2.23;;
5612;SDS011;63463;53.586;9.928;2023-07-31T09:41:28;7.70;;;2.10;;
5612;SDS011;63463;53.586;9.928;2023-07-31T09:43:54;4.60;;;1.97;;
5612;SDS011;63463;53.586;9.928;2023-07-31T09:46:20;2.60;;;2.50;;
5612;SDS011;63463;53.586;9.928;2023-07-31T09:48:47;4.83;;;2.10;;
5612;SDS011;63463;53.586;9.928;2023-07-31T09:51:13;10.63;;;2.13;;
5612;SDS011;63463;53.586;9.928;2023-07-31T09:53:39;2.10;;;2.00;;
5612;SDS011;63463;53.586;9.928;2023-07-31T09:56:05;2.17;;;1.97;;
5612;SDS011;63463;53.586;9.928;2023-07-31T09:58:32;2.50;;;2.20;;
5612;SDS011;63463;53.586;9.928;2023-07-31T10:01:00;6.77;;;2.40;;
5612;SDS011;63463;53.586;9.928;2023-07-31T10:03:27;7.07;;;2.70;;
5612;SDS011;63463;53.586;9.928;2023-07-31T10:05:55;2.40;;;2.30;;
5612;SDS011;63463;53.586;9.928;2023-07-31T10:08:21;2.00;;;1.90;;
5612;SDS011;63463;53.586;9.928;2023-07-31T10:10:49;3.43;;;2.13;;
5612;SDS011;63463;53.586;9.928;2023-07-31T10:13:15;4.00;;;2.40;;
5612;SDS011;63463;53.586;9.928;2023-07-31T10:15:41;2.17;;;1.90;;
5612;SDS011;63463;53.586;9.928;2023-07-31T10:18:08;3.33;;;2.63;;
5612;SDS011;63463;53.586;9.928;2023-07-31T10:20:34;3.10;;;2.00;;
5612;SDS011;63463;53.586;9.928;2023-07-31T10:23:01;1.87;;;1.67;;
5612;SDS011;63463;53.586;9.928;2023-07-31T10:25:27;2.27;;;1.90;;
5612;SDS011;63463;53.586;9.928;2023-07-31T10:27:55;9.60;;;2.00;;
5612;SDS011;63463;53.586;9.928;2023-07-31T10:30:26;5.90;;;1.90;;
5612;SDS011;63463;53.586;9.928;2023-07-31T10:32:53;11.70;;;2.07;;
5612;SDS011;63463;53.586;9.928;2023-07-31T10:35:19;12.50;;;1.90;;
5612;SDS011;63463;53.586;9.928;2023-07-31T10:37:47;8.63;;;2.00;;
5612;SDS011;63463;53.586;9.928;2023-07-31T10:40:18;1.70;;;1.60;;
5612;SDS011;63463;53.586;9.928;2023-07-31T10:42:56;1.50;;;1.40;;
5612;SDS011;63463;53.586;9.928;2023-07-31T10:45:35;1.73;;;1.40;;
5612;SDS011;63463;53.586;9.928;2023-07-31T10:48:05;1.70;;;1.60;;
5612;SDS011;63463;53.586;9.928;2023-07-31T10:50:32;2.40;;;2.30;;
5612;SDS011;63463;53.586;9.928;2023-07-31T10:52:58;2.40;;;2.30;;
5612;SDS011;63463;53.586;9.928;2023-07-31T10:55:32;3.50;;;2.70;;
5612;SDS011;63463;53.586;9.928;2023-07-31T10:58:06;2.77;;;2.57;;
5612;SDS011;63463;53.586;9.928;2023-07-31T11:00:32;2.17;;;1.97;;
5612;SDS011;63463;53.586;9.928;2023-07-31T11:03:02;2.50;;;2.40;;
5612;SDS011;63463;53.586;9.928;2023-07-31T11:08:32;2.70;;;2.30;;
5612;SDS011;63463;53.586;9.928;2023-07-31T11:13:29;2.67;;;2.50;;
5612;SDS011;63463;53.586;9.928;2023-07-31T11:15:55;2.13;;;2.03;;
5612;SDS011;63463;53.586;9.928;2023-07-31T11:18:28;2.60;;;2.40;;
5612;SDS011;63463;53.586;9.928;2023-07-31T11:20:54;2.23;;;2.00;;
5612;SDS011;63463;53.586;9.928;2023-07-31T11:23:21;2.03;;;1.90;;
5612;SDS011;63463;53.586;9.928;2023-07-31T11:25:47;2.10;;;2.00;;
5612;SDS011;63463;53.586;9.928;2023-07-31T11:28:14;2.03;;;1.93;;
5612;SDS011;63463;53.586;9.928;2023-07-31T11:30:41;2.70;;;1.80;;
5612;SDS011;63463;53.586;9.928;2023-07-31T11:33:08;1.80;;;1.70;;
5612;SDS011;63463;53.586;9.928;2023-07-31T11:35:36;2.00;;;1.90;;
5612;SDS011;63463;53.586;9.928;2023-07-31T11:38:02;1.90;;;1.80;;
5612;SDS011;63463;53.586;9.928;2023-07-31T11:40:28;2.00;;;1.90;;
5612;SDS011;63463;53.586;9.928;2023-07-31T11:42:58;6.53;;;2.63;;
5612;SDS011;63463;53.586;9.928;2023-07-31T11:45:25;1.80;;;1.70;;
5612;SDS011;63463;53.586;9.928;2023-07-31T11:47:52;8.40;;;1.43;;
5612;SDS011;63463;53.586;9.928;2023-07-31T11:50:19;2.60;;;1.70;;
5612;SDS011;63463;53.586;9.928;2023-07-31T11:52:45;3.03;;;1.90;;
5612;SDS011;63463;53.586;9.928;2023-07-31T11:55:11;1.50;;;1.50;;
5612;SDS011;63463;53.586;9.928;2023-07-31T11:57:38;1.80;;;1.70;;
5612;SDS011;63463;53.586;9.928;2023-07-31T12:00:06;1.87;;;1.77;;
5612;SDS011;63463;53.586;9.928;2023-07-31T12:02:32;10.23;;;1.90;;
5612;SDS011;63463;53.586;9.928;2023-07-31T12:04:58;1.90;;;1.80;;
5612;SDS011;63463;53.586;9.928;2023-07-31T12:07:24;2.00;;;1.90;;
5612;SDS011;63463;53.586;9.928;2023-07-31T12:09:54;1.63;;;1.63;;
5612;SDS011;63463;53.586;9.928;2023-07-31T12:12:21;1.80;;;1.70;;
5612;SDS011;63463;53.586;9.928;2023-07-31T12:14:47;1.90;;;1.80;;
5612;SDS011;63463;53.586;9.928;2023-07-31T12:17:13;2.10;;;1.40;;
5612;SDS011;63463;53.586;9.928;2023-07-31T12:19:40;2.13;;;2.03;;
5612;SDS011;63463;53.586;9.928;2023-07-31T12:22:13;2.13;;;2.03;;
5612;SDS011;63463;53.586;9.928;2023-07-31T12:24:40;2.27;;;1.87;;
5612;SDS011;63463;53.586;9.928;2023-07-31T12:27:10;1.60;;;1.50;;
5612;SDS011;63463;53.586;9.928;2023-07-31T12:29:36;2.60;;;1.80;;
5612;SDS011;63463;53.586;9.928;2023-07-31T12:32:02;2.73;;;1.90;;
5612;SDS011;63463;53.586;9.928;2023-07-31T12:34:28;1.70;;;1.60;;
5612;SDS011;63463;53.586;9.928;2023-07-31T12:36:54;1.73;;;1.63;;
5612;SDS011;63463;53.586;9.928;2023-07-31T12:39:20;1.70;;;1.60;;
5612;SDS011;63463;53.586;9.928;2023-07-31T12:41:46;1.83;;;1.70;;
5612;SDS011;63463;53.586;9.928;2023-07-31T12:44:12;3.40;;;1.80;;
5612;SDS011;63463;53.586;9.928;2023-07-31T12:46:37;6.93;;;1.73;;
5612;SDS011;63463;53.586;9.928;2023-07-31T12:49:03;1.90;;;1.80;;
5612;SDS011;63463;53.586;9.928;2023-07-31T12:51:29;3.13;;;1.70;;
5612;SDS011;63463;53.586;9.928;2023-07-31T12:53:55;1.73;;;1.67;;
5612;SDS011;63463;53.586;9.928;2023-07-31T12:56:21;9.73;;;1.70;;
5612;SDS011;63463;53.586;9.928;2023-07-31T12:58:47;2.33;;;2.10;;
5612;SDS011;63463;53.586;9.928;2023-07-31T13:01:13;2.07;;;1.87;;
5612;SDS011;63463;53.586;9.928;2023-07-31T13:03:39;1.70;;;1.70;;
5612;SDS011;63463;53.586;9.928;2023-07-31T13:06:08;1.90;;;1.80;;
5612;SDS011;63463;53.586;9.928;2023-07-31T13:08:34;2.00;;;1.90;;
5612;SDS011;63463;53.586;9.928;2023-07-31T13:11:00;1.80;;;1.80;;
5612;SDS011;63463;53.586;9.928;2023-07-31T13:13:33;2.40;;;2.30;;
5612;SDS011;63463;53.586;9.928;2023-07-31T13:15:59;2.37;;;2.27;;
5612;SDS011;63463;53.586;9.928;2023-07-31T13:18:25;3.80;;;3.00;;
5612;SDS011;63463;53.586;9.928;2023-07-31T13:20:51;3.53;;;3.23;;
5612;SDS011;63463;53.586;9.928;2023-07-31T13:23:17;8.43;;;3.00;;
5612;SDS011;63463;53.586;9.928;2023-07-31T13:25:43;2.60;;;2.50;;
5612;SDS011;63463;53.586;9.928;2023-07-31T13:28:09;2.70;;;2.47;;
5612;SDS011;63463;53.586;9.928;2023-07-31T13:30:35;3.07;;;2.77;;
5612;SDS011;63463;53.586;9.928;2023-07-31T13:33:01;2.73;;;2.63;;
5612;SDS011;63463;53.586;9.928;2023-07-31T13:35:27;2.37;;;2.27;;
5612;SDS011;63463;53.586;9.928;2023-07-31T13:37:53;2.40;;;2.30;;
5612;SDS011;63463;53.586;9.928;2023-07-31T13:40:19;2.53;;;2.43;;
5612;SDS011;63463;53.586;9.928;2023-07-31T13:42:45;2.43;;;2.33;;
5612;SDS011;63463;53.586;9.928;2023-07-31T13:45:12;3.30;;;2.90;;
5612;SDS011;63463;53.586;9.928;2023-07-31T13:47:38;2.37;;;2.27;;
5612;SDS011;63463;53.586;9.928;2023-07-31T13:50:04;2.57;;;2.37;;
5612;SDS011;63463;53.586;9.928;2023-07-31T13:52:30;2.37;;;2.27;;
5612;SDS011;63463;53.586;9.928;2023-07-31T13:54:59;3.70;;;2.77;;
5612;SDS011;63463;53.586;9.928;2023-07-31T13:57:25;3.30;;;3.10;;
5612;SDS011;63463;53.586;9.928;2023-07-31T13:59:51;5.80;;;3.10;;
5612;SDS011;63463;53.586;9.928;2023-07-31T14:02:17;4.33;;;2.90;;
5612;SDS011;63463;53.586;9.928;2023-07-31T14:04:43;5.30;;;3.10;;
5612;SDS011;63463;53.586;9.928;2023-07-31T14:07:09;5.17;;;3.17;;
5612;SDS011;63463;53.586;9.928;2023-07-31T14:09:35;3.60;;;3.40;;
5612;SDS011;63463;53.586;9.928;2023-07-31T14:12:01;4.97;;;3.63;;
5612;SDS011;63463;53.586;9.928;2023-07-31T14:14:27;4.67;;;4.27;;
5612;SDS011;63463;53.586;9.928;2023-07-31T14:16:52;3.93;;;3.33;;
5612;SDS011;63463;53.586;9.928;2023-07-31T14:19:18;5.30;;;3.37;;
5612;SDS011;63463;53.586;9.928;2023-07-31T14:21:45;5.07;;;2.80;;
5612;SDS011;63463;53.586;9.928;2023-07-31T14:24:11;4.13;;;3.40;;
5612;SDS011;63463;53.586;9.928;2023-07-31T14:26:37;5.70;;;4.00;;
5612;SDS011;63463;53.586;9.928;2023-07-31T14:29:03;6.20;;;3.23;;
5612;SDS011;63463;53.586;9.928;2023-07-31T14:31:29;16.73;;;3.93;;
5612;SDS011;63463;53.586;9.928;2023-07-31T14:33:55;117.47;;;6.70;;
5612;SDS011;63463;53.586;9.928;2023-07-31T14:36:21;19.00;;;4.10;;
5612;SDS011;63463;53.586;9.928;2023-07-31T14:38:47;3.60;;;3.30;;
5612;SDS011;63463;53.586;9.928;2023-07-31T14:41:12;12.00;;;3.23;;
5612;SDS011;63463;53.586;9.928;2023-07-31T14:43:38;4.53;;;2.63;;
5612;SDS011;63463;53.586;9.928;2023-07-31T14:46:05;2.90;;;2.70;;
5612;SDS011;63463;53.586;9.928;2023-07-31T14:48:31;4.50;;;2.23;;
5612;SDS011;63463;53.586;9.928;2023-07-31T14:50:57;3.00;;;2.00;;
5612;SDS011;63463;53.586;9.928;2023-07-31T14:53:22;1.60;;;1.50;;
5612;SDS011;63463;53.586;9.928;2023-07-31T14:55:48;2.70;;;1.63;;
5612;SDS011;63463;53.586;9.928;2023-07-31T14:58:14;4.33;;;1.83;;
5612;SDS011;63463;53.586;9.928;2023-07-31T15:00:42;1.70;;;1.70;;
5612;SDS011;63463;53.586;9.928;2023-07-31T15:03:08;4.90;;;1.80;;
5612;SDS011;63463;53.586;9.928;2023-07-31T15:05:33;1.63;;;1.50;;
5612;SDS011;63463;53.586;9.928;2023-07-31T15:07:59;7.03;;;1.53;;